Time;durP1;ratioP1;P1;durP2;ratioP2;P2;SDS_P1;SDS_P2;PMS_P1;PMS_P2;Temp;Humidity;BMP_temperature;BMP_pressure;BME280_temperature;BME280_humidity;BME280_pressure;Samples;Min_cycle;Max_cycle;Signal;HPM_P1;HPM_P2
2024/01/11 00:02:50;;;;;;;11.25;5.07;;;3.40;97.10;;;;;;10365634;28;20018;-72
2024/01/11 00:07:51;;;;;;;13.25;5.80;;;3.30;97.10;;;;;;10362641;28;20026;-72
2024/01/11 00:12:51;;;;;;;12.40;6.20;;;3.30;97.10;;;;;;10361521;28;20048;-72
2024/01/11 00:17:52;;;;;;;11.75;5.47;;;3.30;97.10;;;;;;10365531;28;20027;-71
2024/01/11 00:22:53;;;;;;;14.65;5.60;;;3.30;97.10;;;;;;10371168;28;20024;-72
2024/01/11 00:27:53;;;;;;;11.60;5.65;;;3.30;97.10;;;;;;10370390;28;20545;-72
2024/01/11 00:32:55;;;;;;;10.25;5.13;;;3.30;97.10;;;;;;10373371;28;20268;-72
2024/01/11 00:37:55;;;;;;;10.70;5.70;;;3.30;97.10;;;;;;10367296;28;20026;-72
2024/01/11 00:42:56;;;;;;;11.15;6.07;;;3.30;97.10;;;;;;10364845;28;20026;-72
2024/01/11 00:47:56;;;;;;;12.30;5.38;;;3.30;97.10;;;;;;10373287;28;20037;-72
2024/01/11 00:52:57;;;;;;;11.82;5.78;;;3.30;97.10;;;;;;10356975;28;20113;-72
2024/01/11 00:57:58;;;;;;;13.05;5.22;;;3.30;97.00;;;;;;10354348;28;20076;-72
2024/01/11 01:02:58;;;;;;;10.63;5.25;;;3.30;97.10;;;;;;10374137;28;20033;-72
2024/01/11 01:07:59;;;;;;;11.90;5.55;;;3.30;97.10;;;;;;10364936;28;20533;-72
2024/01/11 01:12:59;;;;;;;13.18;5.78;;;3.30;97.10;;;;;;10370497;28;20018;-72
2024/01/11 01:18:00;;;;;;;11.13;5.40;;;3.20;97.00;;;;;;10368174;28;20441;-72
2024/01/11 01:23:01;;;;;;;10.23;5.38;;;3.20;97.00;;;;;;10369158;28;20018;-72
2024/01/11 01:28:02;;;;;;;12.57;6.22;;;3.70;97.20;;;;;;10365665;28;20025;-72
2024/01/11 01:33:03;;;;;;;12.02;5.93;;;3.20;97.00;;;;;;10372022;28;20033;-71
2024/01/11 01:38:04;;;;;;;12.75;5.80;;;3.20;97.00;;;;;;10357969;28;20110;-72
2024/01/11 01:43:09;;;;;;;14.00;6.30;;;3.20;97.00;;;;;;10370339;28;20454;-72
2024/01/11 01:48:09;;;;;;;16.00;6.47;;;3.20;97.00;;;;;;10366038;28;20903;-72
2024/01/11 01:53:10;;;;;;;12.07;5.85;;;3.20;97.00;;;;;;10376314;28;20018;-72
2024/01/11 01:58:12;;;;;;;11.27;5.63;;;3.20;97.00;;;;;;10373112;28;20021;-72
2024/01/11 02:03:15;;;;;;;13.30;6.57;;;3.20;97.00;;;;;;10373899;28;20022;-72
2024/01/11 02:08:17;;;;;;;11.70;5.75;;;3.20;97.00;;;;;;10372361;28;20031;-72
2024/01/11 02:13:19;;;;;;;13.13;5.95;;;3.20;97.00;;;;;;10376369;28;20112;-72
2024/01/11 02:18:20;;;;;;;12.85;5.65;;;3.10;97.00;;;;;;10359854;28;20115;-72
2024/01/11 02:23:24;;;;;;;13.38;6.30;;;3.20;97.30;;;;;;10372272;28;20149;-72
2024/01/11 02:28:24;;;;;;;14.85;7.13;;;3.50;97.10;;;;;;10366923;28;20184;-71
2024/01/11 02:33:25;;;;;;;15.90;6.50;;;3.10;97.00;;;;;;10375229;28;20060;-71
2024/01/11 02:38:27;;;;;;;13.93;6.50;;;3.10;97.00;;;;;;10372760;28;20029;-72
2024/01/11 02:43:28;;;;;;;13.50;5.97;;;3.10;97.00;;;;;;10376757;28;20029;-71
2024/01/11 02:48:29;;;;;;;14.88;6.60;;;3.10;97.00;;;;;;10371113;28;20037;-72
2024/01/11 02:53:34;;;;;;;15.00;7.03;;;3.10;97.00;;;;;;10371511;28;20025;-72
2024/01/11 02:58:34;;;;;;;13.65;6.20;;;3.10;97.00;;;;;;10371699;28;20022;-72
2024/01/11 03:03:35;;;;;;;14.63;6.97;;;3.10;97.00;;;;;;10371981;28;20049;-71
2024/01/11 03:08:36;;;;;;;13.52;6.38;;;3.10;97.00;;;;;;10366149;28;20065;-72
2024/01/11 03:13:36;;;;;;;16.02;6.47;;;3.10;97.00;;;;;;10366307;28;20053;-72
2024/01/11 03:18:37;;;;;;;14.00;6.15;;;3.00;96.90;;;;;;10354347;28;20057;-71
2024/01/11 03:23:38;;;;;;;15.23;5.97;;;3.00;96.90;;;;;;10378030;28;20443;-71
2024/01/11 03:28:38;;;;;;;13.80;6.93;;;3.00;96.90;;;;;;10376319;28;20861;-72
2024/01/11 03:33:39;;;;;;;13.40;5.40;;;3.00;96.90;;;;;;10374601;28;20038;-71
2024/01/11 03:38:39;;;;;;;14.77;6.65;;;3.00;96.90;;;;;;10370625;28;20034;-72
2024/01/11 03:43:40;;;;;;;14.48;6.35;;;3.00;96.90;;;;;;10373116;28;20026;-72
2024/01/11 03:48:42;;;;;;;13.35;5.90;;;3.00;96.90;;;;;;10369730;28;20050;-71
2024/01/11 03:53:43;;;;;;;13.52;6.07;;;3.00;96.90;;;;;;10366789;28;20014;-73
2024/01/11 03:58:44;;;;;;;12.60;6.28;;;3.00;96.90;;;;;;10384843;28;20041;-72
2024/01/11 04:03:45;;;;;;;11.93;5.85;;;3.00;96.90;;;;;;10385348;28;20609;-72
2024/01/11 04:08:45;;;;;;;15.32;6.63;;;3.00;97.20;;;;;;10387078;28;20108;-72
2024/01/11 04:13:46;;;;;;;14.90;6.30;;;3.00;96.90;;;;;;10381275;28;20033;-72
2024/01/11 04:18:47;;;;;;;13.25;6.45;;;2.90;96.90;;;;;;10385226;28;20112;-72
2024/01/11 04:23:48;;;;;;;15.35;6.70;;;2.90;96.90;;;;;;10378425;28;20470;-72
2024/01/11 04:28:49;;;;;;;14.55;7.15;;;2.90;96.90;;;;;;10391241;28;20105;-71
2024/01/11 04:33:50;;;;;;;14.38;5.88;;;2.90;96.90;;;;;;10369953;28;20022;-71
2024/01/11 04:38:50;;;;;;;17.30;6.97;;;2.90;96.90;;;;;;10367110;28;20037;-72
2024/01/11 04:43:51;;;;;;;14.93;6.93;;;2.90;96.90;;;;;;10391274;28;20097;-71
2024/01/11 04:48:53;;;;;;;14.10;6.88;;;2.90;96.90;;;;;;10385022;28;20068;-71
2024/01/11 04:53:54;;;;;;;16.05;6.40;;;2.90;96.90;;;;;;10381463;28;20021;-71
2024/01/11 04:58:55;;;;;;;16.48;7.28;;;2.90;96.80;;;;;;10388662;28;20026;-71
2024/01/11 05:03:55;;;;;;;14.95;7.53;;;2.90;96.90;;;;;;10386458;28;20038;-72
2024/01/11 05:08:56;;;;;;;13.85;6.57;;;2.90;96.80;;;;;;10390487;28;20068;-72
2024/01/11 05:13:56;;;;;;;14.60;6.85;;;2.90;96.80;;;;;;10382506;28;20550;-71
2024/01/11 05:18:58;;;;;;;14.50;6.47;;;2.90;96.80;;;;;;10389518;28;20030;-72
2024/01/11 05:23:58;;;;;;;14.88;7.38;;;2.80;96.80;;;;;;10390036;28;20549;-71
2024/01/11 05:28:59;;;;;;;12.75;6.72;;;2.90;96.80;;;;;;10382808;28;20037;-71
2024/01/11 05:33:59;;;;;;;14.48;6.78;;;2.80;96.80;;;;;;10363727;28;20019;-72
2024/01/11 05:39:00;;;;;;;15.05;5.88;;;2.60;96.70;;;;;;10375636;28;20049;-71
2024/01/11 05:44:01;;;;;;;12.75;6.43;;;2.80;96.80;;;;;;10368103;28;20073;-71
2024/01/11 05:49:01;;;;;;;15.23;6.72;;;2.80;96.80;;;;;;10373400;28;20570;-71
2024/01/11 05:54:02;;;;;;;16.67;7.47;;;2.80;96.80;;;;;;10364943;28;20037;-71
2024/01/11 05:59:02;;;;;;;13.45;6.18;;;2.80;96.80;;;;;;10382714;28;20033;-71
2024/01/11 06:04:03;;;;;;;14.48;6.45;;;2.80;96.80;;;;;;10377492;28;20018;-71
2024/01/11 06:09:04;;;;;;;14.63;6.47;;;2.80;96.80;;;;;;10363108;28;20014;-71
2024/01/11 06:14:05;;;;;;;15.45;6.65;;;2.80;96.80;;;;;;10379094;28;20070;-72
2024/01/11 06:19:07;;;;;;;16.30;6.88;;;2.80;96.80;;;;;;10379867;28;20470;-71
2024/01/11 06:24:07;;;;;;;13.38;6.20;;;2.80;96.80;;;;;;10380697;28;20025;-71
2024/01/11 06:29:08;;;;;;;14.27;6.97;;;2.80;96.70;;;;;;10369935;28;20448;-71
2024/01/11 06:34:08;;;;;;;13.82;5.85;;;2.80;96.70;;;;;;10375911;28;20607;-72
2024/01/11 06:39:10;;;;;;;15.23;6.22;;;2.80;96.70;;;;;;10375072;28;20908;-72
2024/01/11 06:44:10;;;;;;;15.55;7.28;;;2.70;96.70;;;;;;10364412;28;20017;-71
2024/01/11 06:49:11;;;;;;;15.18;7.20;;;2.70;96.70;;;;;;10377886;28;20025;-71
2024/01/11 06:54:12;;;;;;;13.57;6.68;;;2.70;96.70;;;;;;10379410;28;20018;-72
2024/01/11 06:59:12;;;;;;;16.20;7.55;;;2.70;96.70;;;;;;10375248;28;20033;-71
2024/01/11 07:04:13;;;;;;;13.13;6.28;;;2.80;96.70;;;;;;10362743;28;20029;-72
2024/01/11 07:09:14;;;;;;;14.93;6.65;;;2.80;96.30;;;;;;10378140;28;20026;-72
2024/01/11 07:14:14;;;;;;;17.92;7.40;;;3.70;96.90;;;;;;10375937;28;20056;-72
2024/01/11 07:19:17;;;;;;;16.48;7.20;;;2.70;96.60;;;;;;10378967;28;20671;-72
2024/01/11 07:24:18;;;;;;;17.58;7.47;;;2.80;96.60;;;;;;10353073;28;20018;-72
2024/01/11 07:29:19;;;;;;;14.80;6.70;;;2.80;96.60;;;;;;10357149;28;20113;-72
2024/01/11 07:34:19;;;;;;;12.20;6.45;;;2.80;96.60;;;;;;10359101;28;20029;-71
2024/01/11 07:39:22;;;;;;;18.77;8.05;;;2.80;96.60;;;;;;10354374;28;20038;-72
2024/01/11 07:44:23;;;;;;;18.23;7.28;;;2.80;96.60;;;;;;10358999;28;20166;-71
2024/01/11 07:49:23;;;;;;;16.45;7.95;;;2.80;96.60;;;;;;10341409;28;20034;-72
2024/01/11 07:54:24;;;;;;;17.02;7.05;;;2.80;96.60;;;;;;10377771;28;20048;-73
2024/01/11 07:59:25;;;;;;;18.15;7.15;;;2.80;96.60;;;;;;10357738;28;20048;-71
2024/01/11 08:04:25;;;;;;;15.68;7.00;;;2.80;96.50;;;;;;10377518;28;20608;-72
2024/01/11 08:09:26;;;;;;;14.50;6.55;;;2.80;96.50;;;;;;10368799;28;20040;-71
2024/01/11 08:14:27;;;;;;;13.23;5.97;;;2.90;96.60;;;;;;10367488;28;20034;-72
2024/01/11 08:19:27;;;;;;;18.48;7.32;;;2.90;96.60;;;;;;10371554;28;20029;-71
2024/01/11 08:24:28;;;;;;;17.10;7.50;;;2.90;96.50;;;;;;10371298;28;20018;-72
2024/01/11 08:29:29;;;;;;;16.48;6.80;;;2.90;96.50;;;;;;10365978;28;20456;-73
2024/01/11 08:34:30;;;;;;;12.90;6.15;;;2.90;96.50;;;;;;10368078;28;20057;-71
2024/01/11 08:39:31;;;;;;;14.23;6.72;;;2.90;96.50;;;;;;10353576;28;20452;-72
2024/01/11 08:44:32;;;;;;;15.68;7.13;;;2.90;96.50;;;;;;10361147;28;20018;-72
2024/01/11 08:49:32;;;;;;;14.65;6.63;;;2.90;96.50;;;;;;10385755;28;20064;-72
2024/01/11 08:54:33;;;;;;;15.45;6.85;;;2.90;96.50;;;;;;10375758;28;20033;-71
2024/01/11 08:59:34;;;;;;;15.98;6.90;;;3.00;96.50;;;;;;10378270;28;20032;-71
2024/01/11 09:04:34;;;;;;;14.50;7.13;;;3.00;96.50;;;;;;10388802;28;20073;-71
2024/01/11 09:09:35;;;;;;;14.00;6.47;;;3.00;96.50;;;;;;10387632;28;20048;-72
2024/01/11 09:14:35;;;;;;;13.18;6.40;;;3.00;96.50;;;;;;10380188;28;20402;-72
2024/01/11 09:19:39;;;;;;;13.25;6.50;;;3.00;96.50;;;;;;10374077;28;20034;-72
2024/01/11 09:24:40;;;;;;;14.63;6.15;;;3.00;96.50;;;;;;10377814;28;20754;-72
2024/01/11 09:29:45;;;;;;;11.80;5.53;;;3.00;96.50;;;;;;10357387;28;20121;-72
2024/01/11 09:34:45;;;;;;;12.60;5.63;;;3.10;96.50;;;;;;10377993;28;20026;-72
2024/01/11 09:39:46;;;;;;;13.60;6.18;;;3.10;96.60;;;;;;10380920;28;20034;-73
2024/01/11 09:44:47;;;;;;;13.02;5.93;;;3.20;96.50;;;;;;10367916;28;20014;-73
2024/01/11 09:49:53;;;;;;;15.63;6.55;;;4.60;96.80;;;;;;10357864;28;20360;-73
2024/01/11 09:54:54;;;;;;;12.68;6.28;;;3.20;96.50;;;;;;10355175;28;20076;-74
2024/01/11 09:59:56;;;;;;;16.17;6.68;;;3.20;96.60;;;;;;10345519;28;20426;-73
2024/01/11 10:04:56;;;;;;;17.42;7.43;;;3.20;96.70;;;;;;10358164;28;20494;-73
2024/01/11 10:09:58;;;;;;;14.18;6.53;;;3.20;96.70;;;;;;10351913;28;20113;-74
2024/01/11 10:15:09;;;;;;;13.63;6.47;;;3.20;96.70;;;;;;10339183;28;20030;-74
2024/01/11 10:20:13;;;;;;;14.85;6.20;;;3.20;96.70;;;;;;10346664;28;20037;-74
2024/01/11 10:25:15;;;;;;;17.13;6.65;;;3.20;96.70;;;;;;10341304;28;20022;-74
2024/01/11 10:30:17;;;;;;;14.57;6.10;;;3.20;96.80;;;;;;10354205;28;20475;-74
2024/01/11 10:35:18;;;;;;;14.57;6.05;;;3.30;96.80;;;;;;10339261;28;20036;-74
2024/01/11 10:40:23;;;;;;;11.55;5.75;;;3.40;96.90;;;;;;10338733;28;20140;-73
2024/01/11 10:45:26;;;;;;;16.17;6.78;;;3.30;96.90;;;;;;10350710;28;20520;-73
2024/01/11 10:50:30;;;;;;;14.40;6.25;;;3.30;96.90;;;;;;10361770;28;20038;-74
2024/01/11 10:55:33;;;;;;;15.23;6.72;;;3.30;96.90;;;;;;10355340;28;20113;-73
2024/01/11 11:00:35;;;;;;;15.52;6.40;;;3.30;97.00;;;;;;10337845;28;20034;-73
2024/01/11 11:05:37;;;;;;;12.77;6.65;;;3.40;97.00;;;;;;10344051;28;20117;-73
2024/01/11 11:10:40;;;;;;;14.43;6.55;;;3.40;97.10;;;;;;10359773;28;20066;-74
2024/01/11 11:15:45;;;;;;;17.10;6.40;;;3.40;97.10;;;;;;10356661;28;20120;-74
2024/01/11 11:20:46;;;;;;;12.85;6.20;;;3.50;97.20;;;;;;10358842;28;20042;-77
2024/01/11 11:25:48;;;;;;;14.27;6.45;;;3.50;97.30;;;;;;10364554;28;20616;-75
2024/01/11 11:30:52;;;;;;;12.65;6.18;;;3.50;97.20;;;;;;10346134;28;20033;-76
2024/01/11 11:35:54;;;;;;;18.23;6.63;;;3.50;97.30;;;;;;10360671;28;20031;-75
2024/01/11 11:40:59;;;;;;;16.75;6.45;;;3.50;97.40;;;;;;10367262;28;20044;-75
2024/01/11 11:46:07;;;;;;;15.75;6.32;;;3.50;97.50;;;;;;10362661;28;20076;-75
2024/01/11 11:51:11;;;;;;;17.60;6.53;;;3.60;97.50;;;;;;10356127;28;20573;-76
2024/01/11 11:56:16;;;;;;;18.48;6.95;;;3.60;97.60;;;;;;10344291;28;20029;-75
2024/01/11 12:01:17;;;;;;;14.40;6.63;;;3.60;97.60;;;;;;10369187;28;20033;-76
2024/01/11 12:06:19;;;;;;;19.40;7.97;;;3.60;97.60;;;;;;10346252;28;20037;-76
2024/01/11 12:11:21;;;;;;;17.63;7.70;;;3.80;98.70;;;;;;10373216;28;20025;-76
2024/01/11 12:16:22;;;;;;;20.05;8.52;;;3.90;98.10;;;;;;10368550;28;20602;-74
2024/01/11 12:21:22;;;;;;;20.52;8.23;;;3.80;98.00;;;;;;10370172;28;20025;-74
2024/01/11 12:26:23;;;;;;;21.05;9.20;;;3.90;98.20;;;;;;10372917;28;20371;-74
2024/01/11 12:31:24;;;;;;;22.95;7.88;;;3.80;98.20;;;;;;10361671;28;20528;-75
2024/01/11 12:36:25;;;;;;;19.88;7.88;;;3.90;98.40;;;;;;10353453;28;20030;-72
2024/01/11 12:41:26;;;;;;;20.65;8.05;;;4.10;98.80;;;;;;10358908;28;20080;-72
2024/01/11 12:46:27;;;;;;;17.25;7.38;;;4.10;98.90;;;;;;10370825;28;20121;-72
2024/01/11 12:51:27;;;;;;;16.27;7.70;;;4.10;98.70;;;;;;10354494;28;20037;-74
2024/01/11 12:56:28;;;;;;;17.20;7.20;;;4.10;98.70;;;;;;10369337;28;20095;-73
2024/01/11 13:01:29;;;;;;;22.40;7.15;;;4.10;98.80;;;;;;10380186;28;20044;-73
2024/01/11 13:06:34;;;;;;;15.95;7.05;;;4.10;98.90;;;;;;10364501;28;20390;-72
2024/01/11 13:11:35;;;;;;;12.20;6.25;;;4.10;99.00;;;;;;10377162;28;20032;-73
2024/01/11 13:16:35;;;;;;;16.77;6.38;;;4.10;99.00;;;;;;10374162;28;20490;-71
2024/01/11 13:21:36;;;;;;;17.98;7.07;;;4.10;99.10;;;;;;10371175;28;20034;-71
2024/01/11 13:26:37;;;;;;;18.83;7.90;;;4.10;99.10;;;;;;10363912;28;20454;-72
2024/01/11 13:31:38;;;;;;;15.88;7.50;;;4.10;99.10;;;;;;10366240;28;20042;-71
2024/01/11 13:36:38;;;;;;;16.33;6.65;;;4.10;99.10;;;;;;10356840;28;20038;-72
2024/01/11 13:41:40;;;;;;;15.15;6.43;;;4.10;99.10;;;;;;10374325;28;20061;-73
2024/01/11 13:46:41;;;;;;;14.73;6.05;;;4.20;99.10;;;;;;10377317;28;20022;-76
2024/01/11 13:51:44;;;;;;;14.02;6.50;;;4.20;99.20;;;;;;10373435;28;20037;-72
2024/01/11 13:56:44;;;;;;;20.65;7.22;;;4.30;99.10;;;;;;10377178;28;20041;-73
2024/01/11 14:01:45;;;;;;;17.95;6.50;;;4.30;99.00;;;;;;10376654;28;20036;-73
2024/01/11 14:06:46;;;;;;;13.80;6.90;;;4.20;99.00;;;;;;10376162;28;20460;-74
2024/01/11 14:11:48;;;;;;;14.10;6.22;;;4.10;99.00;;;;;;10378282;28;20492;-73
2024/01/11 14:16:49;;;;;;;16.42;7.38;;;4.10;99.00;;;;;;10374095;28;20018;-73
2024/01/11 14:21:51;;;;;;;15.07;6.22;;;4.10;99.00;;;;;;10371004;28;20057;-73
2024/01/11 14:26:52;;;;;;;13.70;5.95;;;4.10;99.00;;;;;;10369145;28;20033;-73
2024/01/11 14:31:52;;;;;;;15.65;6.90;;;4.60;99.20;;;;;;10370465;28;20120;-73
2024/01/11 14:36:53;;;;;;;14.20;6.22;;;4.10;99.00;;;;;;10374573;28;20044;-74
2024/01/11 14:41:53;;;;;;;14.75;6.28;;;4.10;99.00;;;;;;10363559;28;20022;-73
2024/01/11 14:46:57;;;;;;;16.90;6.03;;;4.00;99.20;;;;;;10363562;28;20034;-76
2024/01/11 14:51:57;;;;;;;18.00;5.90;;;4.10;99.30;;;;;;10374900;28;20018;-76
2024/01/11 14:56:58;;;;;;;14.90;6.63;;;4.20;99.20;;;;;;10368941;28;20033;-70
2024/01/11 15:02:02;;;;;;;17.60;6.88;;;4.50;99.60;;;;;;10379385;28;20030;-71
2024/01/11 15:07:04;;;;;;;17.25;6.80;;;4.60;98.90;;;;;;10356986;28;20045;-71
2024/01/11 15:12:05;;;;;;;14.90;6.47;;;4.60;98.80;;;;;;10364373;28;20013;-71
2024/01/11 15:17:06;;;;;;;18.55;7.25;;;4.50;98.90;;;;;;10376414;28;20072;-73
2024/01/11 15:22:08;;;;;;;19.27;6.95;;;4.40;99.10;;;;;;10374848;28;20017;-71
2024/01/11 15:27:09;;;;;;;22.25;7.55;;;4.50;99.10;;;;;;10378831;28;20061;-72
2024/01/11 15:32:10;;;;;;;14.85;6.43;;;4.40;99.00;;;;;;10351779;28;20033;-75
2024/01/11 15:37:10;;;;;;;19.02;6.97;;;4.40;99.10;;;;;;10347439;28;20029;-70
2024/01/11 15:42:11;;;;;;;16.23;7.20;;;4.30;99.10;;;;;;10380422;28;20022;-75
2024/01/11 15:47:11;;;;;;;15.40;6.57;;;4.40;99.30;;;;;;10369758;28;20152;-74
2024/01/11 15:52:12;;;;;;;16.20;6.78;;;4.30;99.20;;;;;;10358240;28;20030;-74
2024/01/11 15:57:12;;;;;;;14.18;6.75;;;4.20;99.20;;;;;;10368862;28;20037;-73
2024/01/11 16:02:14;;;;;;;15.45;6.88;;;4.10;99.30;;;;;;10348021;28;20539;-74
2024/01/11 16:07:15;;;;;;;13.82;6.35;;;4.10;99.60;;;;;;10377254;28;20406;-71
2024/01/11 16:12:16;;;;;;;12.82;5.78;;;4.10;99.30;;;;;;10375725;28;20021;-71
2024/01/11 16:17:17;;;;;;;13.35;6.15;;;4.20;99.30;;;;;;10358118;28;20034;-76
2024/01/11 16:22:20;;;;;;;14.55;6.28;;;5.40;99.50;;;;;;10367562;28;20619;-74
2024/01/11 16:27:20;;;;;;;14.55;6.20;;;4.20;99.20;;;;;;10372618;28;20029;-71
2024/01/11 16:32:22;;;;;;;15.27;5.90;;;4.30;99.60;;;;;;10363734;28;20053;-71
2024/01/11 16:37:22;;;;;;;14.93;6.15;;;4.30;99.20;;;;;;10371988;28;20057;-71
2024/01/11 16:42:24;;;;;;;11.55;6.30;;;4.40;99.30;;;;;;10367641;28;20124;-72
2024/01/11 16:47:24;;;;;;;13.60;5.57;;;4.40;99.20;;;;;;10375685;28;20026;-72
2024/01/11 16:52:25;;;;;;;12.90;5.57;;;4.30;99.10;;;;;;10378377;28;20421;-72
2024/01/11 16:57:26;;;;;;;15.82;6.50;;;4.30;99.20;;;;;;10378388;28;20473;-71
2024/01/11 17:02:31;;;;;;;12.55;5.18;;;4.30;99.20;;;;;;10380181;28;20029;-72
2024/01/11 17:07:31;;;;;;;15.15;6.00;;;4.30;99.20;;;;;;10373280;28;20518;-71
2024/01/11 17:12:32;;;;;;;13.60;5.80;;;4.30;99.20;;;;;;10377972;28;20064;-72
2024/01/11 17:17:32;;;;;;;12.38;5.15;;;4.30;99.20;;;;;;10374582;28;20033;-73
2024/01/11 17:22:33;;;;;;;10.55;5.20;;;4.30;99.20;;;;;;10377224;28;20057;-72
2024/01/11 17:27:34;;;;;;;9.77;4.82;;;4.30;99.20;;;;;;10381238;28;20062;-72
2024/01/11 17:32:37;;;;;;;12.15;5.60;;;4.30;99.20;;;;;;10373353;28;20098;-74
2024/01/11 17:37:38;;;;;;;12.80;5.70;;;4.30;99.30;;;;;;10381287;28;20021;-72
2024/01/11 17:42:38;;;;;;;18.77;6.93;;;4.40;99.90;;;;;;10378376;28;20022;-72
2024/01/11 17:47:41;;;;;;;17.55;6.97;;;4.50;99.30;;;;;;10360835;28;20037;-72
2024/01/11 17:52:43;;;;;;;14.77;6.07;;;4.50;99.20;;;;;;10355913;28;20022;-72
2024/01/11 17:57:43;;;;;;;14.00;6.82;;;4.40;99.20;;;;;;10373963;28;20476;-76
2024/01/11 18:02:44;;;;;;;15.00;5.93;;;4.40;99.30;;;;;;10358441;28;20071;-73
2024/01/11 18:07:44;;;;;;;11.35;5.68;;;4.40;99.30;;;;;;10372731;28;20044;-73
2024/01/11 18:12:47;;;;;;;13.45;6.05;;;4.40;99.30;;;;;;10363580;28;20029;-73
2024/01/11 18:17:47;;;;;;;11.57;5.82;;;4.40;99.30;;;;;;10367200;28;20051;-73
2024/01/11 18:22:48;;;;;;;13.27;5.65;;;4.30;99.30;;;;;;10384370;28;20014;-73
2024/01/11 18:27:48;;;;;;;11.15;5.90;;;4.30;99.30;;;;;;10370872;28;20039;-73
2024/01/11 18:32:49;;;;;;;10.80;5.30;;;4.30;99.30;;;;;;10373221;28;20409;-74
2024/01/11 18:37:50;;;;;;;11.48;5.38;;;4.30;99.30;;;;;;10378132;28;20029;-73
2024/01/11 18:42:51;;;;;;;11.65;5.25;;;4.30;99.20;;;;;;10371187;28;20082;-73
2024/01/11 18:47:52;;;;;;;12.85;5.78;;;4.30;99.20;;;;;;10377448;28;20025;-74
2024/01/11 18:52:52;;;;;;;9.73;4.70;;;4.30;99.20;;;;;;10371658;28;20481;-72
2024/01/11 18:57:54;;;;;;;13.00;5.20;;;4.30;99.50;;;;;;10379034;28;20588;-73
2024/01/11 19:02:55;;;;;;;10.57;5.25;;;4.30;99.20;;;;;;10376483;28;20015;-73
2024/01/11 19:07:56;;;;;;;11.02;5.20;;;4.30;99.20;;;;;;10374162;28;20025;-74
2024/01/11 19:12:57;;;;;;;10.80;4.38;;;4.30;99.20;;;;;;10377781;28;20414;-74
2024/01/11 19:17:58;;;;;;;10.30;4.93;;;4.30;99.20;;;;;;10369572;28;20026;-74
2024/01/11 19:22:58;;;;;;;9.23;4.18;;;4.40;99.20;;;;;;10372416;28;20412;-73
2024/01/11 19:28:02;;;;;;;9.32;4.75;;;4.40;99.20;;;;;;10366864;28;20401;-74
2024/01/11 19:33:05;;;;;;;8.60;4.43;;;4.40;99.20;;;;;;10376027;28;20033;-73
2024/01/11 19:38:05;;;;;;;10.63;4.82;;;4.40;99.20;;;;;;10372348;28;20048;-73
2024/01/11 19:43:06;;;;;;;10.88;4.80;;;4.40;99.20;;;;;;10356351;28;20032;-73
2024/01/11 19:48:07;;;;;;;12.10;5.03;;;4.40;99.20;;;;;;10372603;28;20020;-73
2024/01/11 19:53:08;;;;;;;8.95;4.07;;;4.40;99.20;;;;;;10353563;28;20038;-73
2024/01/11 19:58:09;;;;;;;10.20;4.18;;;4.40;99.20;;;;;;10354834;28;20029;-73
2024/01/11 20:03:09;;;;;;;9.88;4.57;;;4.40;99.20;;;;;;10359061;28;20451;-73
2024/01/11 20:08:10;;;;;;;7.05;4.22;;;4.40;99.20;;;;;;10351308;28;20521;-72
2024/01/11 20:13:10;;;;;;;9.43;4.32;;;4.40;99.20;;;;;;10363146;28;20497;-72
2024/01/11 20:18:11;;;;;;;9.73;4.38;;;4.60;99.20;;;;;;10354352;28;20429;-72
2024/01/11 20:23:12;;;;;;;9.30;4.22;;;4.40;99.20;;;;;;10358706;28;20481;-73
2024/01/11 20:28:13;;;;;;;8.23;3.90;;;4.40;99.20;;;;;;10361677;28;20026;-74
2024/01/11 20:33:14;;;;;;;9.50;4.32;;;4.40;99.20;;;;;;10332858;28;20950;-72
2024/01/11 20:38:16;;;;;;;7.80;3.70;;;4.40;99.20;;;;;;10366845;28;20034;-72
2024/01/11 20:43:17;;;;;;;9.02;4.15;;;4.40;99.20;;;;;;10365613;28;20322;-72
2024/01/11 20:48:17;;;;;;;9.57;3.88;;;4.40;99.20;;;;;;10353955;28;20029;-72
2024/01/11 20:53:18;;;;;;;8.77;3.60;;;4.40;99.20;;;;;;10370830;28;20105;-72
2024/01/11 20:58:18;;;;;;;9.15;4.28;;;4.40;99.20;;;;;;10351705;28;20090;-72
2024/01/11 21:03:19;;;;;;;7.47;3.78;;;4.40;99.20;;;;;;10366102;28;20025;-72
2024/01/11 21:08:20;;;;;;;8.13;3.83;;;4.40;99.20;;;;;;10348002;28;20115;-71
2024/01/11 21:13:21;;;;;;;8.57;4.10;;;4.40;99.20;;;;;;10369845;28;20025;-72
2024/01/11 21:18:21;;;;;;;8.63;4.05;;;4.40;99.20;;;;;;10361925;28;20398;-71
2024/01/11 21:23:22;;;;;;;8.77;3.70;;;4.40;99.20;;;;;;10346427;28;20021;-71
2024/01/11 21:28:22;;;;;;;8.55;4.10;;;4.40;99.20;;;;;;10367737;28;20029;-71
2024/01/11 21:33:23;;;;;;;8.60;3.83;;;4.40;99.20;;;;;;10360515;28;20032;-71
2024/01/11 21:38:23;;;;;;;7.65;3.65;;;4.50;99.20;;;;;;10366361;28;20147;-77
2024/01/11 21:43:24;;;;;;;8.75;3.97;;;4.50;99.30;;;;;;10361671;28;20029;-71
2024/01/11 21:48:24;;;;;;;8.60;3.83;;;4.50;99.20;;;;;;10363463;28;20087;-71
2024/01/11 21:53:29;;;;;;;10.05;4.40;;;4.50;99.20;;;;;;10345605;28;20385;-71
2024/01/11 21:58:30;;;;;;;9.65;4.10;;;4.50;99.20;;;;;;10362833;28;20109;-71
2024/01/11 22:03:33;;;;;;;8.70;3.95;;;4.50;99.20;;;;;;10366195;28;20025;-71
2024/01/11 22:08:34;;;;;;;7.72;3.95;;;4.50;99.20;;;;;;10362258;28;20037;-71
2024/01/11 22:13:34;;;;;;;9.02;3.75;;;4.50;99.20;;;;;;10365637;28;20561;-71
2024/01/11 22:18:35;;;;;;;8.30;3.95;;;4.50;99.20;;;;;;10357403;28;20032;-71
2024/01/11 22:23:36;;;;;;;8.48;3.95;;;4.50;99.20;;;;;;10356160;28;20625;-71
2024/01/11 22:28:36;;;;;;;5.88;3.40;;;4.50;99.20;;;;;;10360542;28;20030;-71
2024/01/11 22:33:37;;;;;;;7.03;3.67;;;4.50;99.20;;;;;;10360158;28;20034;-71
2024/01/11 22:38:38;;;;;;;8.32;3.55;;;4.50;99.20;;;;;;10357749;28;20271;-71
2024/01/11 22:43:38;;;;;;;6.45;3.45;;;4.50;99.20;;;;;;10341476;28;20057;-71
2024/01/11 22:48:41;;;;;;;8.80;3.90;;;4.50;99.20;;;;;;10357200;28;20030;-71
2024/01/11 22:53:43;;;;;;;7.03;3.45;;;4.50;99.20;;;;;;10366278;28;20384;-71
2024/01/11 22:58:44;;;;;;;6.95;3.90;;;4.50;99.20;;;;;;10360743;28;20029;-71
2024/01/11 23:03:44;;;;;;;10.30;4.15;;;4.50;99.20;;;;;;10366536;28;20033;-71
2024/01/11 23:08:45;;;;;;;8.93;4.05;;;4.50;99.20;;;;;;10364514;28;20037;-71
2024/01/11 23:13:45;;;;;;;8.05;3.75;;;4.50;99.20;;;;;;10366627;28;20026;-71
2024/01/11 23:18:46;;;;;;;7.70;4.03;;;4.60;99.20;;;;;;10358534;28;20041;-71
2024/01/11 23:23:47;;;;;;;8.35;4.43;;;4.60;99.20;;;;;;10340867;28;20108;-71
2024/01/11 23:28:48;;;;;;;8.15;4.07;;;4.60;99.30;;;;;;10360295;28;20042;-71
2024/01/11 23:33:48;;;;;;;8.63;3.70;;;4.60;99.20;;;;;;10364238;28;20513;-71
2024/01/11 23:38:52;;;;;;;5.82;3.58;;;4.60;99.20;;;;;;10367132;28;20305;-71
2024/01/11 23:43:52;;;;;;;8.80;3.90;;;4.60;99.10;;;;;;10363991;28;20101;-71
2024/01/11 23:48:53;;;;;;;6.55;3.35;;;4.60;99.20;;;;;;10347502;28;20026;-71
2024/01/11 23:53:54;;;;;;;9.15;3.65;;;4.60;99.20;;;;;;10365710;28;20253;-71
2024/01/11 23:58:54;;;;;;;7.90;3.55;;;4.60;99.20;;;;;;10361999;28;20030;-71
